createdAt,value
2018-08-16T00:00:36.910Z,91.90
2018-08-16T00:03:11.147Z,92.40
2018-08-16T00:05:45.326Z,92.70
2018-08-16T00:08:19.349Z,92.60
2018-08-16T00:10:53.505Z,92.60
2018-08-16T00:13:27.530Z,92.80
2018-08-16T00:16:01.594Z,92.80
2018-08-16T00:18:35.726Z,92.50
2018-08-16T00:21:09.719Z,92.90
2018-08-16T00:23:43.814Z,95.70
2018-08-16T00:26:17.931Z,97.80
2018-08-16T00:28:52.042Z,96.50
2018-08-16T00:31:26.217Z,95.30
2018-08-16T00:34:01.222Z,95.30
2018-08-16T00:36:35.306Z,95.30
2018-08-16T00:39:09.782Z,95.00
2018-08-16T00:41:43.790Z,94.30
2018-08-16T00:44:17.854Z,93.80
2018-08-16T00:46:52.750Z,93.40
2018-08-16T00:49:26.927Z,93.40
2018-08-16T00:52:01.030Z,93.40
2018-08-16T00:54:35.281Z,93.40
2018-08-16T00:57:09.366Z,93.70
2018-08-16T00:59:43.350Z,94.20
2018-08-16T01:02:18.286Z,94.20
2018-08-16T01:04:52.405Z,94.20
2018-08-16T01:07:26.337Z,94.00
2018-08-16T01:10:00.298Z,95.30
2018-08-16T01:12:34.431Z,95.60
2018-08-16T01:15:08.536Z,95.40
2018-08-16T01:17:42.470Z,95.20
2018-08-16T01:20:16.680Z,95.80
2018-08-16T01:22:50.562Z,95.70
2018-08-16T01:25:24.739Z,95.40
2018-08-16T01:27:58.893Z,95.10
2018-08-16T01:30:33.029Z,94.90
2018-08-16T01:33:07.153Z,95.10
2018-08-16T01:35:42.146Z,94.50
2018-08-16T01:38:16.058Z,94.50
2018-08-16T01:40:50.895Z,95.50
2018-08-16T01:43:25.046Z,95.50
2018-08-16T01:45:58.935Z,94.50
2018-08-16T01:48:33.734Z,95.30
2018-08-16T01:51:07.766Z,95.30
2018-08-16T01:53:41.773Z,94.80
2018-08-16T01:56:15.897Z,94.60
2018-08-16T01:58:50.613Z,94.50
2018-08-16T02:01:24.662Z,94.40
2018-08-16T02:03:58.830Z,95.50
2018-08-16T02:06:32.941Z,95.40
2018-08-16T02:09:07.010Z,95.20
2018-08-16T02:11:41.106Z,95.20
2018-08-16T02:14:15.221Z,95.00
2018-08-16T02:16:49.313Z,95.20
2018-08-16T02:19:23.417Z,95.60
2018-08-16T02:21:57.442Z,95.10
2018-08-16T02:24:31.574Z,95.30
2018-08-16T02:27:05.685Z,95.30
2018-08-16T02:29:39.754Z,95.30
2018-08-16T02:32:13.857Z,95.70
2018-08-16T02:34:48.024Z,96.70
2018-08-16T02:37:22.097Z,97.00
2018-08-16T02:39:56.258Z,96.60
2018-08-16T02:42:30.283Z,96.60
2018-08-16T02:45:04.371Z,95.90
2018-08-16T02:47:38.424Z,95.90
2018-08-16T02:50:12.577Z,96.70
2018-08-16T02:52:47.669Z,96.50
2018-08-16T02:55:21.617Z,96.20
2018-08-16T02:57:55.664Z,96.30
2018-08-16T03:00:29.688Z,96.70
2018-08-16T03:03:03.845Z,96.80
2018-08-16T03:05:37.913Z,97.10
2018-08-16T03:08:11.883Z,97.30
2018-08-16T03:10:45.954Z,97.30
2018-08-16T03:13:20.179Z,98.00
2018-08-16T03:15:54.382Z,98.40
2018-08-16T03:18:28.345Z,98.60
2018-08-16T03:21:02.433Z,98.60
2018-08-16T03:23:37.285Z,98.30
2018-08-16T03:26:11.338Z,98.20
2018-08-16T03:28:46.230Z,98.50
2018-08-16T03:31:20.406Z,98.50
2018-08-16T03:33:54.410Z,98.20
2018-08-16T03:36:28.441Z,98.90
2018-08-16T03:39:02.435Z,99.90
2018-08-16T03:41:36.594Z,99.90
2018-08-16T03:44:10.585Z,99.90
2018-08-16T03:46:44.732Z,99.90
2018-08-16T03:49:18.963Z,99.90
2018-08-16T03:51:53.026Z,99.90
2018-08-16T03:54:27.135Z,99.90
2018-08-16T03:57:01.302Z,99.90
2018-08-16T03:59:35.254Z,99.50
2018-08-16T04:02:09.429Z,99.40
2018-08-16T04:04:43.654Z,99.70
2018-08-16T04:07:17.717Z,99.30
2018-08-16T04:09:52.442Z,99.90
2018-08-16T04:12:26.547Z,99.90
2018-08-16T04:15:00.570Z,99.90
2018-08-16T04:17:34.568Z,99.90
2018-08-16T04:20:08.728Z,99.90
2018-08-16T04:22:42.870Z,99.90
2018-08-16T04:25:17.018Z,99.90
2018-08-16T04:27:51.281Z,99.60
2018-08-16T04:30:25.358Z,99.10
2018-08-16T04:33:00.268Z,99.40
2018-08-16T04:35:34.418Z,99.40
2018-08-16T04:38:08.395Z,99.20
2018-08-16T04:40:42.497Z,99.90
2018-08-16T04:43:16.671Z,99.90
2018-08-16T04:45:50.837Z,99.90
2018-08-16T04:48:24.804Z,99.90
2018-08-16T04:50:58.743Z,99.90
2018-08-16T04:53:32.881Z,99.80
2018-08-16T04:56:07.042Z,99.60
2018-08-16T04:58:41.287Z,99.40
2018-08-16T05:01:16.411Z,99.30
2018-08-16T05:03:50.619Z,98.80
2018-08-16T05:06:24.928Z,99.00
2018-08-16T05:08:59.625Z,99.00
2018-08-16T05:11:33.606Z,98.30
2018-08-16T05:14:07.722Z,99.10
2018-08-16T05:16:41.864Z,98.60
2018-08-16T05:19:15.792Z,99.60
2018-08-16T05:21:49.977Z,99.90
2018-08-16T05:24:23.894Z,99.70
2018-08-16T05:26:58.606Z,99.90
2018-08-16T05:29:32.696Z,99.90
2018-08-16T05:32:06.895Z,99.40
2018-08-16T05:34:41.100Z,98.70
2018-08-16T05:37:15.219Z,99.90
2018-08-16T05:39:50.198Z,99.90
2018-08-16T05:42:24.549Z,99.90
2018-08-16T05:44:58.732Z,99.90
2018-08-16T05:47:32.850Z,99.90
2018-08-16T05:50:06.801Z,99.90
2018-08-16T05:52:40.969Z,99.90
2018-08-16T05:55:15.050Z,99.90
2018-08-16T05:57:49.114Z,99.90
2018-08-16T06:00:23.176Z,99.90
2018-08-16T06:02:57.930Z,99.90
2018-08-16T06:05:31.845Z,99.90
2018-08-16T06:08:05.935Z,99.90
2018-08-16T06:10:40.066Z,99.90
2018-08-16T06:13:14.139Z,99.90
2018-08-16T06:15:48.318Z,99.90
2018-08-16T06:18:22.487Z,99.90
2018-08-16T06:20:56.461Z,99.90
2018-08-16T06:23:30.526Z,99.90
2018-08-16T06:26:05.354Z,99.90
2018-08-16T06:28:39.404Z,99.90
2018-08-16T06:31:14.364Z,99.90
2018-08-16T06:33:49.167Z,99.90
2018-08-16T06:36:23.268Z,99.90
2018-08-16T06:38:57.450Z,99.90
2018-08-16T06:41:31.442Z,99.90
2018-08-16T06:44:06.308Z,99.90
2018-08-16T06:46:40.406Z,99.90
2018-08-16T06:49:14.497Z,99.90
2018-08-16T06:51:48.473Z,99.90
2018-08-16T06:54:22.455Z,99.90
2018-08-16T06:56:56.568Z,99.90
2018-08-16T06:59:30.479Z,99.90
2018-08-16T07:02:04.559Z,99.90
2018-08-16T07:04:38.699Z,99.90
2018-08-16T07:07:12.785Z,99.90
2018-08-16T07:09:46.934Z,99.90
2018-08-16T07:12:21.972Z,99.90
2018-08-16T07:14:55.882Z,99.90
2018-08-16T07:17:29.893Z,99.90
2018-08-16T07:20:04.620Z,97.20
2018-08-16T07:22:39.478Z,97.20
2018-08-16T07:25:13.494Z,97.20
2018-08-16T07:27:47.647Z,96.20
2018-08-16T07:30:22.514Z,96.90
2018-08-16T07:32:56.469Z,96.90
2018-08-16T07:35:30.600Z,96.70
2018-08-16T07:38:04.713Z,96.30
2018-08-16T07:40:38.844Z,94.70
2018-08-16T07:43:12.933Z,95.80
2018-08-16T07:45:47.299Z,94.10
2018-08-16T07:48:21.470Z,91.20
2018-08-16T07:50:55.633Z,90.70
2018-08-16T07:53:29.637Z,90.10
2018-08-16T07:56:04.843Z,88.90
2018-08-16T07:58:39.250Z,89.00
2018-08-16T08:01:13.427Z,86.00
2018-08-16T08:03:47.627Z,81.90
2018-08-16T08:06:21.726Z,85.60
2018-08-16T08:08:56.506Z,84.50
2018-08-16T08:11:30.731Z,85.20
2018-08-16T08:14:04.809Z,83.80
2018-08-16T08:16:39.738Z,80.60
2018-08-16T08:19:14.765Z,80.50
2018-08-16T08:21:48.776Z,80.50
2018-08-16T08:24:22.942Z,77.50
2018-08-16T08:26:58.195Z,78.10
2018-08-16T08:29:32.355Z,78.10
2018-08-16T08:32:07.129Z,79.30
2018-08-16T08:34:41.158Z,79.30
2018-08-16T08:37:59.101Z,76.80
2018-08-16T08:40:33.262Z,78.20
2018-08-16T08:43:07.224Z,75.80
2018-08-16T08:45:41.442Z,75.10
2018-08-16T08:48:15.469Z,75.50
2018-08-16T08:50:49.605Z,75.80
2018-08-16T08:53:24.858Z,75.40
2018-08-16T08:59:20.483Z,74.50
2018-08-16T09:01:54.555Z,73.70
2018-08-16T09:04:28.510Z,71.80
2018-08-16T09:07:02.603Z,74.40
2018-08-16T09:09:36.578Z,75.30
2018-08-16T09:15:33.820Z,71.90
2018-08-16T09:18:07.692Z,73.30
2018-08-16T09:20:41.806Z,73.00
2018-08-16T09:23:15.789Z,71.00
2018-08-16T09:25:50.537Z,71.30
2018-08-16T09:28:24.669Z,71.20
2018-08-16T09:34:18.612Z,70.50
2018-08-16T09:36:52.758Z,70.40
2018-08-16T09:39:26.885Z,69.60
2018-08-16T09:42:00.949Z,68.00
2018-08-16T09:44:35.122Z,68.60
2018-08-16T09:50:37.245Z,64.90
2018-08-16T09:53:11.310Z,66.00
2018-08-16T09:55:45.451Z,65.90
2018-08-16T09:58:20.385Z,63.20
2018-08-16T10:00:54.491Z,63.10
2018-08-16T10:03:29.415Z,61.60
2018-08-16T10:06:03.487Z,61.60
2018-08-16T10:08:37.432Z,62.30
2018-08-16T10:11:11.525Z,61.50
2018-08-16T10:13:45.555Z,63.30
2018-08-16T10:16:19.502Z,61.10
2018-08-16T10:18:53.654Z,60.60
2018-08-16T10:21:27.735Z,60.30
2018-08-16T10:24:01.926Z,60.60
2018-08-16T10:26:35.921Z,61.30
2018-08-16T10:29:10.662Z,61.80
2018-08-16T10:31:44.804Z,61.80
2018-08-16T10:34:19.006Z,60.90
2018-08-16T10:36:53.077Z,60.60
2018-08-16T10:39:27.166Z,60.80
2018-08-16T10:42:01.283Z,59.60
2018-08-16T10:44:35.470Z,60.60
2018-08-16T10:47:09.770Z,59.20
2018-08-16T10:49:43.968Z,59.20
2018-08-16T10:52:18.160Z,60.10
2018-08-16T10:54:52.221Z,60.00
2018-08-16T10:57:26.281Z,58.90
2018-08-16T11:00:00.443Z,58.40
2018-08-16T11:02:34.622Z,58.80
2018-08-16T11:05:08.826Z,59.20
2018-08-16T11:07:42.987Z,60.20
2018-08-16T11:10:17.085Z,59.80
2018-08-16T11:12:51.234Z,59.30
2018-08-16T11:15:25.424Z,58.40
2018-08-16T11:17:59.358Z,57.80
2018-08-16T11:20:33.481Z,57.60
2018-08-16T11:23:07.558Z,58.00
2018-08-16T11:25:41.517Z,56.70
2018-08-16T11:28:15.685Z,56.30
2018-08-16T11:30:49.649Z,57.80
2018-08-16T11:33:23.858Z,57.60
2018-08-16T11:35:58.082Z,57.50
2018-08-16T11:38:32.254Z,57.30
2018-08-16T11:41:06.257Z,56.10
2018-08-16T11:43:40.360Z,57.00
2018-08-16T11:46:14.399Z,55.90
2018-08-16T11:48:49.321Z,55.10
2018-08-16T11:51:23.394Z,55.10
2018-08-16T11:53:58.248Z,55.00
2018-08-16T11:56:32.325Z,55.00
2018-08-16T11:59:06.260Z,55.90
2018-08-16T12:01:40.262Z,56.20
2018-08-16T12:04:40.214Z,54.30
2018-08-16T12:07:20.448Z,55.50
2018-08-16T12:09:54.706Z,55.40
2018-08-16T12:12:28.851Z,54.80
2018-08-16T12:15:03.001Z,53.50
2018-08-16T12:17:37.164Z,52.30
2018-08-16T12:20:11.317Z,53.20
2018-08-16T12:22:45.452Z,52.10
2018-08-16T12:25:19.533Z,52.50
2018-08-16T12:27:53.563Z,52.50
2018-08-16T12:30:27.743Z,52.80
2018-08-16T12:33:01.815Z,51.80
2018-08-16T12:35:36.770Z,52.50
